EWG4DX LIMC-EDDL
Flight info
| Callsign | EWG4DX |
|---|---|
| Flight time | 0h 59m |
| Altitude | 38000 |
| Route | AOSTA DCT ORSUD DCT MOLUS DCT GILIR DCT PENDU DCT IXILU DCT GIVOR DCT SORAL DCT IBERA/N0451F320 N853 DIK/N0451F310 N853 ARCKY T853 NVO T857 BIKMU BIKMU1A |
| Aircraft | A21N/M-SDE2E3FGHIRWXY/LB1 |
Departure
| Time | 2026-05-01 13:24 |
|---|---|
| Airport | Milan Malpensa International Airport (LIMC) |
Arrival
| Time | 2026-05-01 14:23 |
|---|---|
| Airport | Düsseldorf Airport (EDDL) |
| Time | Latitude | Longitude | Altitude | Speed | Heading |
|---|---|---|---|---|---|
| 2026-05-01 12:41 | 45.62545 | 8.71604 | 746 ft | 0 kts | 169° |
| 2026-05-01 13:11 | 45.62564 | 8.71599 | 743 ft | 4 kts | 169° |
| 2026-05-01 13:11 | 45.62587 | 8.71592 | 745 ft | 3 kts | 168° |
| 2026-05-01 13:11 | 45.62609 | 8.71578 | 744 ft | 4 kts | 127° |
| 2026-05-01 13:12 | 45.62617 | 8.71544 | 746 ft | 3 kts | 94° |
| 2026-05-01 13:12 | 45.62618 | 8.71538 | 746 ft | 3 kts | 92° |
| 2026-05-01 13:14 | 45.62618 | 8.71541 | 744 ft | 1 kts | 92° |
| 2026-05-01 13:15 | 45.62617 | 8.71566 | 744 ft | 4 kts | 91° |
| 2026-05-01 13:15 | 45.62621 | 8.71619 | 743 ft | 7 kts | 79° |
| 2026-05-01 13:15 | 45.62633 | 8.71701 | 746 ft | 10 kts | 79° |
| 2026-05-01 13:15 | 45.62648 | 8.71812 | 746 ft | 13 kts | 79° |
| 2026-05-01 13:16 | 45.62668 | 8.71951 | 746 ft | 16 kts | 79° |
| 2026-05-01 13:16 | 45.62676 | 8.72113 | 746 ft | 18 kts | 133° |
| 2026-05-01 13:16 | 45.62556 | 8.72166 | 743 ft | 19 kts | 167° |
| 2026-05-01 13:17 | 45.62226 | 8.72356 | 745 ft | 17 kts | 77° |
| 2026-05-01 13:17 | 45.62250 | 8.72529 | 744 ft | 19 kts | 79° |
| 2026-05-01 13:18 | 45.62305 | 8.72926 | 747 ft | 20 kts | 79° |
| 2026-05-01 13:18 | 45.62259 | 8.73032 | 744 ft | 15 kts | 169° |
| 2026-05-01 13:18 | 45.62153 | 8.73061 | 747 ft | 17 kts | 169° |
| 2026-05-01 13:18 | 45.62035 | 8.73093 | 743 ft | 18 kts | 169° |
| 2026-05-01 13:19 | 45.61905 | 8.73129 | 742 ft | 20 kts | 169° |
| 2026-05-01 13:19 | 45.61773 | 8.73169 | 746 ft | 14 kts | 154° |
| 2026-05-01 13:19 | 45.61649 | 8.73399 | 743 ft | 11 kts | 124° |
| 2026-05-01 13:20 | 45.61605 | 8.73492 | 743 ft | 12 kts | 124° |
| 2026-05-01 13:20 | 45.61584 | 8.73595 | 743 ft | 5 kts | 85° |
| 2026-05-01 13:20 | 45.61584 | 8.73598 | 746 ft | 0 kts | 85° |
| 2026-05-01 13:21 | 45.61585 | 8.73610 | 746 ft | 3 kts | 85° |
| 2026-05-01 13:22 | 45.61587 | 8.73648 | 746 ft | 5 kts | 84° |
| 2026-05-01 13:22 | 45.61599 | 8.73708 | 744 ft | 8 kts | 62° |
| 2026-05-01 13:22 | 45.61655 | 8.73725 | 744 ft | 10 kts | 351° |
| 2026-05-01 13:22 | 45.61711 | 8.73711 | 745 ft | 5 kts | 347° |
| 2026-05-01 13:23 | 45.61750 | 8.73699 | 745 ft | 7 kts | 348° |
| 2026-05-01 13:23 | 45.61806 | 8.73683 | 745 ft | 11 kts | 349° |
| 2026-05-01 13:23 | 45.62094 | 8.73604 | 745 ft | 78 kts | 349° |
| 2026-05-01 13:23 | 45.62839 | 8.73399 | 745 ft | 138 kts | 349° |
| 2026-05-01 13:24 | 45.63928 | 8.73099 | 758 ft | 179 kts | 349° |
| 2026-05-01 13:24 | 45.65167 | 8.72747 | 1254 ft | 184 kts | 349° |
| 2026-05-01 13:24 | 45.66471 | 8.72538 | 1830 ft | 193 kts | 358° |
| 2026-05-01 13:25 | 45.69272 | 8.72663 | 3090 ft | 215 kts | 358° |
| 2026-05-01 13:25 | 45.70868 | 8.72552 | 3576 ft | 242 kts | 357° |
| 2026-05-01 13:25 | 45.72559 | 8.72322 | 4533 ft | 244 kts | 344° |
| 2026-05-01 13:25 | 45.73945 | 8.71021 | 5607 ft | 241 kts | 305° |
| 2026-05-01 13:26 | 45.74574 | 8.68815 | 6573 ft | 244 kts | 277° |
| 2026-05-01 13:26 | 45.74567 | 8.66378 | 7461 ft | 248 kts | 258° |
| 2026-05-01 13:26 | 45.73839 | 8.64173 | 8329 ft | 253 kts | 232° |
| 2026-05-01 13:26 | 45.72690 | 8.62208 | 9226 ft | 256 kts | 229° |
| 2026-05-01 13:27 | 45.71609 | 8.60214 | 10092 ft | 260 kts | 243° |
| 2026-05-01 13:27 | 45.71182 | 8.57632 | 10529 ft | 281 kts | 273° |
| 2026-05-01 13:27 | 45.73202 | 8.52595 | 11200 ft | 325 kts | 327° |
| 2026-05-01 13:28 | 45.77596 | 8.49722 | 11879 ft | 368 kts | 337° |
| 2026-05-01 13:28 | 45.79968 | 8.48222 | 12417 ft | 376 kts | 336° |
| 2026-05-01 13:29 | 45.84758 | 8.44994 | 13912 ft | 384 kts | 335° |
| 2026-05-01 13:29 | 45.89624 | 8.41648 | 15342 ft | 391 kts | 335° |
| 2026-05-01 13:30 | 45.99577 | 8.34744 | 17817 ft | 405 kts | 335° |
| 2026-05-01 13:31 | 46.04697 | 8.31181 | 18943 ft | 411 kts | 335° |
| 2026-05-01 13:31 | 46.12520 | 8.25739 | 20530 ft | 421 kts | 335° |
| 2026-05-01 13:32 | 46.17822 | 8.22025 | 21557 ft | 427 kts | 335° |
| 2026-05-01 13:33 | 46.25919 | 8.16343 | 23087 ft | 435 kts | 335° |
| 2026-05-01 13:33 | 46.31416 | 8.12502 | 24048 ft | 441 kts | 335° |
| 2026-05-01 13:34 | 46.36967 | 8.08588 | 24987 ft | 447 kts | 335° |
| 2026-05-01 13:34 | 46.42593 | 8.04607 | 25923 ft | 452 kts | 335° |
| 2026-05-01 13:35 | 46.48234 | 8.00572 | 26729 ft | 457 kts | 334° |
| 2026-05-01 13:35 | 46.51092 | 7.98490 | 27144 ft | 459 kts | 334° |
| 2026-05-01 13:35 | 46.56803 | 7.94404 | 28149 ft | 456 kts | 335° |
| 2026-05-01 13:36 | 46.59656 | 7.92372 | 28636 ft | 455 kts | 335° |
| 2026-05-01 13:36 | 46.62493 | 7.90353 | 29100 ft | 454 kts | 334° |
| 2026-05-01 13:36 | 46.68158 | 7.86292 | 30049 ft | 451 kts | 335° |
| 2026-05-01 13:37 | 46.70976 | 7.84307 | 30486 ft | 450 kts | 335° |
| 2026-05-01 13:37 | 46.73810 | 7.82307 | 30902 ft | 450 kts | 334° |
| 2026-05-01 13:37 | 46.76605 | 7.80289 | 31320 ft | 449 kts | 334° |
| 2026-05-01 13:37 | 46.79404 | 7.78265 | 31709 ft | 449 kts | 334° |
| 2026-05-01 13:38 | 46.84956 | 7.74242 | 32463 ft | 448 kts | 334° |
| 2026-05-01 13:38 | 46.87756 | 7.72233 | 32822 ft | 447 kts | 335° |
| 2026-05-01 13:38 | 46.90550 | 7.70240 | 33193 ft | 447 kts | 334° |
| 2026-05-01 13:39 | 46.93343 | 7.68231 | 33535 ft | 446 kts | 334° |
| 2026-05-01 13:39 | 46.96121 | 7.66227 | 33856 ft | 446 kts | 334° |
| 2026-05-01 13:39 | 46.98905 | 7.64210 | 34167 ft | 445 kts | 334° |
| 2026-05-01 13:39 | 47.01684 | 7.62242 | 34473 ft | 444 kts | 335° |
| 2026-05-01 13:40 | 47.04463 | 7.60271 | 34754 ft | 444 kts | 334° |
| 2026-05-01 13:40 | 47.07244 | 7.58287 | 35034 ft | 443 kts | 334° |
| 2026-05-01 13:40 | 47.10009 | 7.56295 | 35313 ft | 443 kts | 334° |
| 2026-05-01 13:40 | 47.12779 | 7.54285 | 35585 ft | 442 kts | 334° |
| 2026-05-01 13:41 | 47.15530 | 7.52286 | 35836 ft | 442 kts | 334° |
| 2026-05-01 13:41 | 47.18280 | 7.50284 | 36070 ft | 441 kts | 334° |
| 2026-05-01 13:41 | 47.21035 | 7.48272 | 36291 ft | 441 kts | 334° |
| 2026-05-01 13:41 | 47.23779 | 7.46256 | 36512 ft | 441 kts | 334° |
| 2026-05-01 13:42 | 47.26498 | 7.44271 | 36740 ft | 441 kts | 334° |
| 2026-05-01 13:42 | 47.29245 | 7.42265 | 37049 ft | 438 kts | 334° |
| 2026-05-01 13:42 | 47.31964 | 7.40259 | 37382 ft | 434 kts | 333° |
| 2026-05-01 13:42 | 47.34655 | 7.38268 | 37647 ft | 432 kts | 333° |
| 2026-05-01 13:43 | 47.37340 | 7.36261 | 37848 ft | 432 kts | 333° |
| 2026-05-01 13:43 | 47.40014 | 7.34252 | 38017 ft | 432 kts | 333° |
| 2026-05-01 13:43 | 47.42700 | 7.32249 | 38183 ft | 432 kts | 333° |
| 2026-05-01 13:43 | 47.45463 | 7.30529 | 38317 ft | 432 kts | 341° |
| 2026-05-01 13:44 | 47.48315 | 7.29113 | 38340 ft | 432 kts | 342° |
| 2026-05-01 13:44 | 47.54037 | 7.26402 | 38305 ft | 432 kts | 342° |
| 2026-05-01 13:45 | 47.59729 | 7.23568 | 38286 ft | 432 kts | 341° |
| 2026-05-01 13:45 | 47.65413 | 7.20661 | 38293 ft | 432 kts | 341° |
| 2026-05-01 13:46 | 47.71101 | 7.17755 | 38287 ft | 432 kts | 341° |
| 2026-05-01 13:46 | 47.76787 | 7.14831 | 38293 ft | 432 kts | 341° |
| 2026-05-01 13:47 | 47.82441 | 7.11924 | 38289 ft | 433 kts | 341° |
| 2026-05-01 13:47 | 47.88133 | 7.08995 | 38290 ft | 433 kts | 341° |
| 2026-05-01 13:48 | 47.93820 | 7.06045 | 38288 ft | 433 kts | 341° |
| 2026-05-01 13:48 | 47.99516 | 7.03101 | 38286 ft | 433 kts | 341° |
| 2026-05-01 13:49 | 48.05210 | 7.00158 | 38286 ft | 434 kts | 341° |
| 2026-05-01 13:49 | 48.10919 | 6.97184 | 38290 ft | 434 kts | 341° |
| 2026-05-01 13:50 | 48.16621 | 6.94207 | 38286 ft | 434 kts | 341° |
| 2026-05-01 13:50 | 48.22329 | 6.91228 | 38286 ft | 435 kts | 341° |
| 2026-05-01 13:51 | 48.28034 | 6.88244 | 38283 ft | 434 kts | 341° |
| 2026-05-01 13:51 | 48.33746 | 6.85244 | 38280 ft | 435 kts | 340° |
| 2026-05-01 13:52 | 48.39463 | 6.82239 | 38278 ft | 435 kts | 341° |
| 2026-05-01 13:52 | 48.45177 | 6.79217 | 38282 ft | 435 kts | 340° |
| 2026-05-01 13:53 | 48.50884 | 6.76206 | 38277 ft | 434 kts | 341° |
| 2026-05-01 13:53 | 48.59406 | 6.71683 | 38293 ft | 435 kts | 340° |
| 2026-05-01 13:54 | 48.65118 | 6.68623 | 38293 ft | 435 kts | 340° |
| 2026-05-01 13:54 | 48.70823 | 6.65597 | 38289 ft | 434 kts | 341° |
| 2026-05-01 13:55 | 48.76534 | 6.62554 | 38293 ft | 435 kts | 340° |
| 2026-05-01 13:55 | 48.82201 | 6.59504 | 38289 ft | 434 kts | 340° |
| 2026-05-01 13:56 | 48.87940 | 6.56436 | 38291 ft | 435 kts | 340° |
| 2026-05-01 13:56 | 48.93604 | 6.53379 | 38293 ft | 435 kts | 340° |
| 2026-05-01 13:57 | 48.98377 | 6.50783 | 38291 ft | 435 kts | 340° |
| 2026-05-01 13:57 | 49.05000 | 6.47188 | 38287 ft | 435 kts | 340° |
| 2026-05-01 13:58 | 49.10702 | 6.44138 | 38290 ft | 434 kts | 341° |
| 2026-05-01 13:58 | 49.15575 | 6.42046 | 38293 ft | 434 kts | 345° |
| 2026-05-01 13:59 | 49.21419 | 6.39668 | 38291 ft | 434 kts | 345° |
| 2026-05-01 13:59 | 49.27220 | 6.37283 | 38299 ft | 434 kts | 345° |
| 2026-05-01 14:00 | 49.33051 | 6.34877 | 38301 ft | 434 kts | 345° |
| 2026-05-01 14:00 | 49.38890 | 6.32465 | 38290 ft | 434 kts | 345° |
| 2026-05-01 14:01 | 49.44729 | 6.30048 | 38286 ft | 434 kts | 345° |
| 2026-05-01 14:01 | 49.50564 | 6.27626 | 38290 ft | 434 kts | 345° |
| 2026-05-01 14:02 | 49.56360 | 6.25241 | 38288 ft | 434 kts | 345° |
| 2026-05-01 14:02 | 49.62200 | 6.22861 | 38290 ft | 434 kts | 345° |
| 2026-05-01 14:03 | 49.68031 | 6.20462 | 38102 ft | 433 kts | 345° |
| 2026-05-01 14:03 | 49.70941 | 6.19264 | 37685 ft | 431 kts | 345° |
| 2026-05-01 14:03 | 49.73844 | 6.18070 | 37218 ft | 431 kts | 345° |
| 2026-05-01 14:04 | 49.76744 | 6.16870 | 36735 ft | 431 kts | 345° |
| 2026-05-01 14:04 | 49.79645 | 6.15672 | 36242 ft | 431 kts | 345° |
| 2026-05-01 14:04 | 49.82550 | 6.14464 | 35745 ft | 433 kts | 345° |
| 2026-05-01 14:04 | 49.85499 | 6.13362 | 35241 ft | 438 kts | 350° |
| 2026-05-01 14:05 | 49.88544 | 6.12956 | 34744 ft | 442 kts | 359° |
| 2026-05-01 14:05 | 49.91634 | 6.12953 | 34252 ft | 444 kts | 0° |
| 2026-05-01 14:05 | 49.94734 | 6.13000 | 33752 ft | 446 kts | 0° |
| 2026-05-01 14:05 | 49.97802 | 6.13043 | 33264 ft | 447 kts | 0° |
| 2026-05-01 14:06 | 50.00949 | 6.13075 | 32760 ft | 448 kts | 0° |
| 2026-05-01 14:06 | 50.04033 | 6.13096 | 32268 ft | 449 kts | 0° |
| 2026-05-01 14:06 | 50.07165 | 6.13108 | 31768 ft | 451 kts | 0° |
| 2026-05-01 14:06 | 50.10313 | 6.13126 | 31269 ft | 452 kts | 0° |
| 2026-05-01 14:07 | 50.13455 | 6.13147 | 30770 ft | 453 kts | 0° |
| 2026-05-01 14:07 | 50.16612 | 6.13164 | 30249 ft | 453 kts | 0° |
| 2026-05-01 14:07 | 50.19774 | 6.13177 | 29713 ft | 453 kts | 0° |
| 2026-05-01 14:08 | 50.26103 | 6.13243 | 28577 ft | 456 kts | 2° |
| 2026-05-01 14:08 | 50.29245 | 6.13929 | 27990 ft | 457 kts | 14° |
| 2026-05-01 14:08 | 50.32215 | 6.15670 | 27418 ft | 456 kts | 27° |
| 2026-05-01 14:08 | 50.34904 | 6.18242 | 26860 ft | 452 kts | 33° |
| 2026-05-01 14:09 | 50.37516 | 6.20964 | 26275 ft | 448 kts | 34° |
| 2026-05-01 14:09 | 50.40067 | 6.23624 | 25622 ft | 444 kts | 34° |
| 2026-05-01 14:09 | 50.42666 | 6.26319 | 24944 ft | 440 kts | 33° |
| 2026-05-01 14:09 | 50.45170 | 6.28910 | 24257 ft | 435 kts | 33° |
| 2026-05-01 14:10 | 50.47692 | 6.31512 | 23556 ft | 432 kts | 33° |
| 2026-05-01 14:10 | 50.50215 | 6.34015 | 22854 ft | 428 kts | 31° |
| 2026-05-01 14:10 | 50.52778 | 6.36374 | 22151 ft | 424 kts | 31° |
| 2026-05-01 14:10 | 50.55319 | 6.38710 | 21447 ft | 421 kts | 31° |
| 2026-05-01 14:11 | 50.57835 | 6.41026 | 20746 ft | 417 kts | 31° |
| 2026-05-01 14:11 | 50.62796 | 6.45605 | 19353 ft | 410 kts | 31° |
| 2026-05-01 14:11 | 50.65251 | 6.47876 | 18656 ft | 407 kts | 31° |
| 2026-05-01 14:12 | 50.67686 | 6.50130 | 17959 ft | 404 kts | 31° |
| 2026-05-01 14:12 | 50.70094 | 6.52362 | 17263 ft | 401 kts | 31° |
| 2026-05-01 14:12 | 50.72489 | 6.54584 | 16563 ft | 398 kts | 31° |
| 2026-05-01 14:12 | 50.74873 | 6.56796 | 15861 ft | 395 kts | 31° |
| 2026-05-01 14:13 | 50.77239 | 6.58990 | 15164 ft | 393 kts | 31° |
| 2026-05-01 14:13 | 50.78794 | 6.60436 | 14706 ft | 390 kts | 31° |
| 2026-05-01 14:13 | 50.81974 | 6.63160 | 13762 ft | 388 kts | 23° |
| 2026-05-01 14:13 | 50.84570 | 6.64249 | 13061 ft | 388 kts | 10° |
| 2026-05-01 14:14 | 50.87227 | 6.64822 | 12532 ft | 381 kts | 8° |
| 2026-05-01 14:14 | 50.89833 | 6.65336 | 12263 ft | 375 kts | 8° |
| 2026-05-01 14:14 | 50.92368 | 6.65846 | 11912 ft | 367 kts | 8° |
| 2026-05-01 14:14 | 50.94900 | 6.66373 | 11503 ft | 359 kts | 8° |
| 2026-05-01 14:15 | 50.97368 | 6.66500 | 11066 ft | 354 kts | 353° |
| 2026-05-01 14:15 | 50.99673 | 6.65375 | 10631 ft | 349 kts | 333° |
| 2026-05-01 14:15 | 51.01590 | 6.63080 | 10212 ft | 343 kts | 312° |
| 2026-05-01 14:15 | 51.02900 | 6.59974 | 9805 ft | 337 kts | 296° |
| 2026-05-01 14:16 | 51.03895 | 6.56629 | 9402 ft | 334 kts | 291° |
| 2026-05-01 14:16 | 51.04400 | 6.53078 | 8950 ft | 328 kts | 271° |
| 2026-05-01 14:16 | 51.04325 | 6.49484 | 8533 ft | 323 kts | 264° |
| 2026-05-01 14:16 | 51.04131 | 6.45952 | 8101 ft | 319 kts | 263° |
| 2026-05-01 14:17 | 51.03959 | 6.42465 | 7653 ft | 316 kts | 270° |
| 2026-05-01 14:17 | 51.04468 | 6.39124 | 7132 ft | 310 kts | 297° |
| 2026-05-01 14:17 | 51.05830 | 6.36593 | 6682 ft | 299 kts | 326° |
| 2026-05-01 14:17 | 51.07713 | 6.35432 | 6237 ft | 287 kts | 356° |
| 2026-05-01 14:18 | 51.09625 | 6.35884 | 5798 ft | 274 kts | 28° |
| 2026-05-01 14:18 | 51.10991 | 6.37853 | 5390 ft | 266 kts | 60° |
| 2026-05-01 14:18 | 51.11817 | 6.40458 | 5126 ft | 260 kts | 65° |
| 2026-05-01 14:18 | 51.12374 | 6.42116 | 4970 ft | 256 kts | 62° |
| 2026-05-01 14:19 | 51.13648 | 6.45269 | 4616 ft | 249 kts | 56° |
| 2026-05-01 14:19 | 51.14686 | 6.47429 | 4347 ft | 244 kts | 56° |
| 2026-05-01 14:19 | 51.15709 | 6.49562 | 4054 ft | 239 kts | 55° |
| 2026-05-01 14:19 | 51.16707 | 6.51648 | 3781 ft | 236 kts | 55° |
| 2026-05-01 14:20 | 51.17691 | 6.53704 | 3469 ft | 232 kts | 54° |
| 2026-05-01 14:20 | 51.19626 | 6.57749 | 2850 ft | 228 kts | 54° |
| 2026-05-01 14:20 | 51.20582 | 6.59747 | 2563 ft | 225 kts | 54° |
| 2026-05-01 14:21 | 51.21513 | 6.61696 | 2267 ft | 223 kts | 54° |
| 2026-05-01 14:21 | 51.22458 | 6.63674 | 1946 ft | 219 kts | 54° |
| 2026-05-01 14:21 | 51.23346 | 6.65534 | 1674 ft | 207 kts | 54° |
| 2026-05-01 14:22 | 51.24953 | 6.68903 | 1221 ft | 178 kts | 55° |
| 2026-05-01 14:22 | 51.25688 | 6.70442 | 959 ft | 168 kts | 55° |
| 2026-05-01 14:22 | 51.26374 | 6.71855 | 769 ft | 156 kts | 54° |
| 2026-05-01 14:22 | 51.26986 | 6.73122 | 540 ft | 134 kts | 56° |
| 2026-05-01 14:23 | 51.27540 | 6.74281 | 363 ft | 131 kts | 53° |
| 2026-05-01 14:23 | 51.28075 | 6.75434 | 177 ft | 130 kts | 55° |
| 2026-05-01 14:23 | 51.28601 | 6.76539 | 134 ft | 107 kts | 52° |
| 2026-05-01 14:23 | 51.28870 | 6.77107 | 134 ft | 28 kts | 53° |
| 2026-05-01 14:24 | 51.28978 | 6.77337 | 134 ft | 6 kts | 53° |
| 2026-05-01 14:24 | 51.29008 | 6.77401 | 134 ft | 9 kts | 53° |
| 2026-05-01 14:24 | 51.29026 | 6.77502 | 134 ft | 11 kts | 92° |
| 2026-05-01 14:24 | 51.28978 | 6.77604 | 134 ft | 13 kts | 144° |
| 2026-05-01 14:25 | 51.28894 | 6.77639 | 135 ft | 16 kts | 233° |
| 2026-05-01 14:25 | 51.28846 | 6.77530 | 135 ft | 13 kts | 234° |
| 2026-05-01 14:25 | 51.28789 | 6.77407 | 135 ft | 15 kts | 233° |
| 2026-05-01 14:25 | 51.28722 | 6.77264 | 135 ft | 17 kts | 233° |
| 2026-05-01 14:26 | 51.28645 | 6.77103 | 135 ft | 19 kts | 232° |
| 2026-05-01 14:26 | 51.28502 | 6.76809 | 132 ft | 10 kts | 232° |
| 2026-05-01 14:26 | 51.28458 | 6.76714 | 131 ft | 12 kts | 233° |
| 2026-05-01 14:27 | 51.28404 | 6.76600 | 127 ft | 14 kts | 233° |
| 2026-05-01 14:27 | 51.28333 | 6.76485 | 131 ft | 15 kts | 181° |
| 2026-05-01 14:27 | 51.28251 | 6.76465 | 132 ft | 13 kts | 216° |
| 2026-05-01 14:28 | 51.28118 | 6.76417 | 133 ft | 7 kts | 188° |
| 2026-05-01 14:28 | 51.28075 | 6.76450 | 134 ft | 6 kts | 111° |
| 2026-05-01 14:28 | 51.28069 | 6.76511 | 134 ft | 4 kts | 96° |
| 2026-05-01 14:28 | 51.28068 | 6.76527 | 134 ft | 0 kts | 97° |